createdAt,value
2018-08-09T00:00:36.178Z,15.90
2018-08-09T00:03:05.366Z,16.47
2018-08-09T00:05:34.115Z,15.57
2018-08-09T00:08:02.823Z,14.60
2018-08-09T00:10:31.623Z,15.97
2018-08-09T00:13:00.313Z,15.57
2018-08-09T00:15:29.003Z,14.70
2018-08-09T00:17:57.701Z,15.40
2018-08-09T00:20:26.378Z,15.27
2018-08-09T00:22:55.078Z,15.20
2018-08-09T00:25:23.796Z,15.83
2018-08-09T00:27:52.484Z,17.30
2018-08-09T00:30:21.171Z,17.97
2018-08-09T00:32:49.961Z,17.40
2018-08-09T00:35:18.622Z,16.43
2018-08-09T00:37:47.276Z,15.70
2018-08-09T00:40:15.995Z,16.27
2018-08-09T00:42:44.684Z,16.87
2018-08-09T00:45:13.376Z,16.20
2018-08-09T00:47:42.147Z,15.93
2018-08-09T00:50:10.932Z,16.60
2018-08-09T00:52:43.883Z,15.63
2018-08-09T00:55:12.643Z,15.47
2018-08-09T00:57:43.323Z,16.23
2018-08-09T01:00:11.993Z,17.17
2018-08-09T01:02:40.655Z,16.33
2018-08-09T01:05:09.355Z,16.00
2018-08-09T01:07:38.051Z,16.10
2018-08-09T01:10:06.823Z,15.83
2018-08-09T01:12:35.496Z,16.37
2018-08-09T01:15:04.416Z,16.00
2018-08-09T01:17:33.146Z,17.47
2018-08-09T01:20:02.091Z,15.70
2018-08-09T01:22:30.794Z,15.67
2018-08-09T01:24:59.477Z,15.10
2018-08-09T01:27:28.189Z,16.27
2018-08-09T01:29:56.911Z,15.60
2018-08-09T01:32:25.604Z,14.77
2018-08-09T01:34:54.342Z,15.43
2018-08-09T01:37:22.971Z,15.97
2018-08-09T01:39:51.638Z,15.37
2018-08-09T01:42:36.980Z,15.67
2018-08-09T01:45:05.773Z,15.53
2018-08-09T01:47:34.610Z,15.27
2018-08-09T01:50:03.397Z,15.37
2018-08-09T01:52:32.136Z,15.53
2018-08-09T01:55:00.863Z,15.47
2018-08-09T01:57:29.563Z,16.23
2018-08-09T01:59:58.253Z,13.60
2018-08-09T02:02:27.086Z,13.73
2018-08-09T02:04:55.909Z,15.27
2018-08-09T02:07:24.556Z,15.33
2018-08-09T02:09:53.186Z,15.53
2018-08-09T02:12:21.863Z,14.90
2018-08-09T02:14:50.455Z,16.20
2018-08-09T02:17:19.143Z,16.93
2018-08-09T02:19:47.915Z,15.90
2018-08-09T02:22:16.688Z,16.10
2018-08-09T02:24:45.323Z,15.60
2018-08-09T02:27:14.002Z,16.17
2018-08-09T02:29:42.705Z,15.80
2018-08-09T02:32:11.423Z,16.40
2018-08-09T02:34:40.149Z,16.43
2018-08-09T02:37:08.937Z,18.33
2018-08-09T02:39:37.649Z,18.13
2018-08-09T02:42:06.361Z,16.73
2018-08-09T02:44:35.049Z,17.03
2018-08-09T02:47:03.713Z,15.77
2018-08-09T02:49:32.445Z,13.97
2018-08-09T02:52:01.133Z,14.40
2018-08-09T02:54:29.703Z,15.63
2018-08-09T02:56:58.373Z,15.07
2018-08-09T02:59:27.316Z,14.90
2018-08-09T03:01:55.983Z,15.47
2018-08-09T03:04:24.624Z,16.50
2018-08-09T03:06:53.318Z,16.10
2018-08-09T03:09:21.981Z,16.50
2018-08-09T03:11:50.620Z,17.00
2018-08-09T03:14:20.072Z,17.67
2018-08-09T03:16:48.831Z,17.50
2018-08-09T03:19:17.463Z,17.27
2018-08-09T03:21:46.173Z,16.97
2018-08-09T03:24:14.936Z,18.77
2018-08-09T03:26:43.568Z,19.37
2018-08-09T03:29:12.244Z,18.30
2018-08-09T03:31:41.303Z,18.87
2018-08-09T03:34:10.026Z,19.00
2018-08-09T03:36:38.687Z,18.83
2018-08-09T03:39:10.095Z,18.30
2018-08-09T03:41:38.923Z,15.83
2018-08-09T03:44:07.728Z,18.93
2018-08-09T03:46:36.695Z,20.27
2018-08-09T03:49:05.452Z,20.90
2018-08-09T03:51:34.163Z,19.47
2018-08-09T03:54:02.828Z,18.67
2018-08-09T03:56:31.517Z,19.30
2018-08-09T03:59:00.203Z,19.43
2018-08-09T04:01:28.900Z,19.90
2018-08-09T04:03:57.530Z,20.00
2018-08-09T04:06:26.175Z,19.43
2018-08-09T04:08:54.836Z,17.90
2018-08-09T04:11:23.503Z,18.80
2018-08-09T04:13:52.204Z,19.13
2018-08-09T04:16:20.836Z,19.23
2018-08-09T04:18:49.538Z,17.70
2018-08-09T04:21:18.318Z,18.23
2018-08-09T04:23:47.010Z,18.30
2018-08-09T04:26:15.728Z,18.73
2018-08-09T04:28:44.502Z,17.03
2018-08-09T04:31:13.188Z,16.47
2018-08-09T04:33:41.888Z,16.90
2018-08-09T04:36:10.618Z,17.40
2018-08-09T04:38:39.335Z,14.70
2018-08-09T04:41:08.023Z,15.07
2018-08-09T04:43:36.670Z,14.53
2018-08-09T04:46:05.711Z,14.63
2018-08-09T04:48:34.410Z,14.63
2018-08-09T04:51:03.191Z,14.47
2018-08-09T04:53:31.876Z,14.17
2018-08-09T04:56:00.580Z,14.07
2018-08-09T04:58:29.425Z,13.00
2018-08-09T05:00:58.096Z,12.80
2018-08-09T05:03:26.800Z,12.30
2018-08-09T05:05:55.585Z,12.10
2018-08-09T05:08:24.303Z,11.83
2018-08-09T05:10:52.973Z,11.57
2018-08-09T05:13:21.654Z,11.20
2018-08-09T05:15:50.381Z,10.87
2018-08-09T05:18:19.020Z,12.03
2018-08-09T05:20:48.666Z,11.60
2018-08-09T05:23:17.404Z,11.27
2018-08-09T05:25:46.195Z,11.60
2018-08-09T05:28:14.908Z,10.93
2018-08-09T05:30:43.601Z,11.20
2018-08-09T05:33:12.301Z,10.57
2018-08-09T05:35:41.091Z,10.33
2018-08-09T05:38:09.808Z,10.93
2018-08-09T05:40:38.521Z,9.90
2018-08-09T05:43:07.363Z,9.87
2018-08-09T05:45:36.024Z,9.60
2018-08-09T05:48:05.678Z,9.90
2018-08-09T05:50:34.496Z,9.30
2018-08-09T05:53:03.251Z,9.30
2018-08-09T05:55:32.014Z,9.63
2018-08-09T05:58:00.680Z,9.25
2018-08-09T06:00:29.346Z,10.13
2018-08-09T06:02:58.051Z,10.15
2018-08-09T06:05:26.735Z,10.25
2018-08-09T06:07:55.525Z,10.38
2018-08-09T06:10:24.185Z,11.10
2018-08-09T06:12:52.870Z,10.18
2018-08-09T06:15:21.583Z,11.00
2018-08-09T06:17:50.312Z,11.25
2018-08-09T06:20:19.289Z,11.00
2018-08-09T06:22:47.948Z,12.10
2018-08-09T06:25:16.668Z,10.78
2018-08-09T06:27:45.572Z,10.80
2018-08-09T06:30:14.370Z,11.00
2018-08-09T06:32:43.116Z,10.43
2018-08-09T06:35:11.753Z,9.80
2018-08-09T06:37:40.388Z,10.08
2018-08-09T06:40:12.522Z,12.10
2018-08-09T06:42:42.430Z,11.00
2018-08-09T06:45:11.218Z,10.93
2018-08-09T06:47:40.527Z,10.65
2018-08-09T06:50:10.561Z,11.25
2018-08-09T06:52:39.312Z,11.12
2018-08-09T06:55:08.008Z,11.12
2018-08-09T06:57:36.710Z,10.78
2018-08-09T07:00:09.996Z,11.78
2018-08-09T07:02:38.700Z,10.93
2018-08-09T07:05:07.674Z,11.48
2018-08-09T07:07:36.430Z,10.68
2018-08-09T07:10:07.330Z,10.48
2018-08-09T07:12:36.050Z,10.45
2018-08-09T07:15:08.307Z,10.23
2018-08-09T07:17:37.027Z,10.00
2018-08-09T07:20:07.000Z,10.50
2018-08-09T07:22:36.011Z,9.48
2018-08-09T07:25:05.448Z,9.70
2018-08-09T07:27:34.570Z,9.63
2018-08-09T07:30:04.482Z,10.53
2018-08-09T07:32:33.227Z,10.35
2018-08-09T07:35:03.003Z,10.20
2018-08-09T07:37:31.703Z,9.60
2018-08-09T07:40:00.338Z,9.08
2018-08-09T07:42:29.017Z,9.48
2018-08-09T07:44:58.643Z,9.73
2018-08-09T07:47:27.337Z,9.70
2018-08-09T07:49:56.024Z,9.28
2018-08-09T07:52:24.672Z,8.80
2018-08-09T07:54:53.313Z,8.25
2018-08-09T07:57:21.970Z,8.65
2018-08-09T07:59:50.597Z,8.10
2018-08-09T08:02:19.250Z,8.10
2018-08-09T08:04:47.917Z,7.92
2018-08-09T08:07:17.531Z,7.80
2018-08-09T08:09:46.153Z,7.87
2018-08-09T08:12:14.766Z,8.18
2018-08-09T08:14:43.540Z,8.20
2018-08-09T08:17:12.331Z,8.15
2018-08-09T08:19:41.014Z,8.43
2018-08-09T08:22:09.815Z,8.08
2018-08-09T08:24:38.473Z,8.23
2018-08-09T08:27:07.225Z,8.23
2018-08-09T08:29:35.938Z,8.80
2018-08-09T08:32:04.906Z,8.38
2018-08-09T08:34:34.255Z,8.18
2018-08-09T08:37:02.930Z,8.88
2018-08-09T08:39:31.559Z,8.75
2018-08-09T08:42:00.268Z,8.73
2018-08-09T08:44:29.033Z,8.58
2018-08-09T08:46:57.771Z,8.58
2018-08-09T08:49:26.458Z,8.95
2018-08-09T08:51:55.236Z,9.23
2018-08-09T08:54:23.985Z,8.85
2018-08-09T08:56:52.741Z,9.53
2018-08-09T08:59:21.424Z,9.30
2018-08-09T09:01:50.154Z,8.53
2018-08-09T09:04:18.803Z,8.53
2018-08-09T09:06:47.650Z,8.48
2018-08-09T09:09:16.339Z,9.30
2018-08-09T09:11:45.061Z,9.38
2018-08-09T09:14:13.807Z,8.35
2018-08-09T09:16:42.479Z,8.43
2018-08-09T09:19:11.149Z,8.90
2018-08-09T09:21:39.778Z,8.50
2018-08-09T09:24:08.536Z,8.78
2018-08-09T09:26:37.377Z,8.98
2018-08-09T09:29:06.098Z,8.35
2018-08-09T09:31:35.221Z,8.63
2018-08-09T09:34:04.060Z,9.05
2018-08-09T09:36:32.693Z,9.25
2018-08-09T09:39:01.547Z,8.95
2018-08-09T09:41:30.202Z,8.15
2018-08-09T09:43:58.886Z,8.83
2018-08-09T09:46:27.601Z,8.78
2018-08-09T09:48:56.308Z,8.40
2018-08-09T09:51:25.013Z,8.88
2018-08-09T09:53:53.706Z,8.98
2018-08-09T09:56:22.405Z,9.05
2018-08-09T09:58:51.090Z,9.60
2018-08-09T10:01:25.583Z,8.98
2018-08-09T10:03:54.934Z,8.90
2018-08-09T10:06:23.854Z,8.25
2018-08-09T10:08:52.949Z,8.73
2018-08-09T10:11:21.764Z,8.93
2018-08-09T10:13:50.532Z,9.78
2018-08-09T10:16:19.258Z,8.60
2018-08-09T10:18:48.033Z,9.55
2018-08-09T10:21:16.699Z,9.18
2018-08-09T10:23:45.413Z,8.90
2018-08-09T10:26:14.131Z,9.13
2018-08-09T10:28:42.875Z,9.13
2018-08-09T10:31:11.501Z,9.38
2018-08-09T10:33:40.201Z,8.60
2018-08-09T10:36:08.948Z,9.05
2018-08-09T10:38:37.598Z,9.00
2018-08-09T10:41:06.364Z,9.20
2018-08-09T10:43:35.009Z,9.35
2018-08-09T10:46:03.690Z,8.98
2018-08-09T10:48:32.350Z,8.60
2018-08-09T10:51:01.331Z,9.73
2018-08-09T10:53:29.962Z,9.23
2018-08-09T10:55:58.609Z,9.25
2018-08-09T10:58:28.137Z,8.95
2018-08-09T11:00:56.879Z,9.08
2018-08-09T11:03:25.549Z,8.98
2018-08-09T11:05:54.354Z,9.80
2018-08-09T11:08:23.004Z,8.90
2018-08-09T11:10:51.772Z,8.95
2018-08-09T11:13:20.521Z,8.73
2018-08-09T11:15:49.503Z,8.88
2018-08-09T11:18:18.706Z,8.58
2018-08-09T11:20:47.471Z,8.35
2018-08-09T11:23:16.173Z,8.93
2018-08-09T11:25:44.836Z,8.40
2018-08-09T11:28:14.461Z,8.88
2018-08-09T11:30:43.209Z,7.78
2018-08-09T11:33:11.934Z,8.63
2018-08-09T11:35:40.753Z,8.10
2018-08-09T11:38:09.483Z,8.10
2018-08-09T11:40:38.673Z,7.70
2018-08-09T11:43:07.475Z,8.18
2018-08-09T11:45:36.187Z,7.97
2018-08-09T11:48:05.080Z,8.25
2018-08-09T11:50:33.868Z,8.13
2018-08-09T11:53:03.096Z,8.58
2018-08-09T11:55:32.454Z,8.25
2018-08-09T11:58:01.609Z,8.78
2018-08-09T12:00:31.454Z,8.35
2018-08-09T12:03:00.161Z,7.97
2018-08-09T12:05:28.982Z,8.10
2018-08-09T12:07:57.690Z,7.97
2018-08-09T12:10:26.331Z,8.30
2018-08-09T12:12:55.049Z,8.48
2018-08-09T12:15:23.814Z,8.43
2018-08-09T12:17:52.683Z,8.13
2018-08-09T12:20:21.541Z,7.97
2018-08-09T12:22:50.701Z,8.73
2018-08-09T12:25:19.534Z,8.33
2018-08-09T12:27:48.233Z,8.43
2018-08-09T12:30:17.215Z,8.48
2018-08-09T12:32:46.196Z,8.25
2018-08-09T12:35:16.059Z,8.10
2018-08-09T12:37:44.837Z,8.20
2018-08-09T12:40:14.749Z,7.72
2018-08-09T12:42:43.444Z,8.68
2018-08-09T12:45:12.961Z,8.58
2018-08-09T12:47:41.757Z,8.90
2018-08-09T12:50:12.610Z,8.78
2018-08-09T12:52:42.490Z,9.05
2018-08-09T12:55:12.541Z,9.30
2018-08-09T12:57:41.369Z,8.55
2018-08-09T13:00:12.938Z,8.50
2018-08-09T13:02:42.152Z,8.98
2018-08-09T13:05:12.190Z,9.05
2018-08-09T13:07:42.229Z,8.88
2018-08-09T13:10:13.746Z,8.50
2018-08-09T13:12:43.191Z,8.73
2018-08-09T13:15:14.086Z,8.98
2018-08-09T13:17:48.429Z,9.70
2018-08-09T13:20:19.738Z,9.90
2018-08-09T13:22:50.302Z,8.98
2018-08-09T13:25:19.280Z,8.98
2018-08-09T13:27:49.214Z,9.08
2018-08-09T13:30:18.398Z,8.75
2018-08-09T13:32:47.253Z,8.58
2018-08-09T13:35:16.933Z,8.53
2018-08-09T13:37:45.838Z,8.23
2018-08-09T13:40:17.705Z,8.35
2018-08-09T13:42:47.153Z,7.67
2018-08-09T13:45:17.557Z,8.65
2018-08-09T13:47:46.406Z,8.28
2018-08-09T13:50:15.249Z,8.23
2018-08-09T13:52:44.268Z,8.63
2018-08-09T13:55:14.594Z,8.68
2018-08-09T13:57:44.777Z,8.18
2018-08-09T14:00:14.311Z,8.35
2018-08-09T14:02:45.315Z,9.18
2018-08-09T14:05:14.143Z,9.08
2018-08-09T14:07:43.487Z,9.28
2018-08-09T14:10:14.284Z,9.75
2018-08-09T14:12:43.097Z,9.28
2018-08-09T14:15:14.524Z,9.90
2018-08-09T14:17:43.277Z,8.65
2018-08-09T14:20:15.273Z,8.93
2018-08-09T14:22:44.242Z,8.75
2018-08-09T14:25:13.519Z,8.30
2018-08-09T14:27:42.467Z,9.08
2018-08-09T14:30:14.093Z,8.23
2018-08-09T14:32:44.040Z,9.00
2018-08-09T14:35:14.765Z,8.85
2018-08-09T14:37:44.441Z,9.40
2018-08-09T14:40:14.923Z,8.28
2018-08-09T14:42:45.671Z,8.48
2018-08-09T14:45:16.218Z,8.33
2018-08-09T14:47:45.158Z,8.10
2018-08-09T14:50:14.044Z,7.75
2018-08-09T14:52:42.992Z,7.30
2018-08-09T14:55:12.864Z,7.47
2018-08-09T14:57:41.960Z,7.83
2018-08-09T15:00:19.646Z,7.92
2018-08-09T15:02:48.809Z,8.15
2018-08-09T15:05:18.490Z,8.40
2018-08-09T15:07:47.952Z,7.95
2018-08-09T15:10:17.610Z,8.20
2018-08-09T15:12:46.576Z,8.18
2018-08-09T15:15:15.330Z,8.70
2018-08-09T15:17:44.762Z,8.80
2018-08-09T15:20:14.042Z,8.68
2018-08-09T15:22:43.021Z,9.35
2018-08-09T15:25:12.211Z,8.88
2018-08-09T15:27:41.006Z,9.53
2018-08-09T15:30:15.188Z,9.70
2018-08-09T15:32:43.969Z,9.15
2018-08-09T15:35:12.889Z,9.90
2018-08-09T15:37:42.029Z,9.28
2018-08-09T15:40:11.793Z,9.60
2018-08-09T15:42:40.620Z,9.88
2018-08-09T15:45:12.314Z,9.73
2018-08-09T15:47:41.529Z,9.25
2018-08-09T15:50:13.574Z,8.60
2018-08-09T15:52:42.541Z,9.70
2018-08-09T15:55:12.062Z,9.80
2018-08-09T15:57:40.852Z,9.60
2018-08-09T16:00:15.902Z,9.90
2018-08-09T16:02:44.968Z,9.98
2018-08-09T16:05:13.774Z,10.35
2018-08-09T16:07:42.804Z,11.00
2018-08-09T16:10:13.773Z,10.00
2018-08-09T16:12:42.806Z,9.55
2018-08-09T16:15:14.619Z,10.35
2018-08-09T16:17:44.354Z,10.25
2018-08-09T16:20:13.151Z,10.15
2018-08-09T16:22:42.747Z,10.60
2018-08-09T16:25:14.851Z,10.85
2018-08-09T16:27:44.197Z,10.65
2018-08-09T16:30:21.621Z,11.25
2018-08-09T16:32:50.555Z,11.18
2018-08-09T16:35:19.511Z,11.28
2018-08-09T16:37:48.611Z,10.58
2018-08-09T16:40:25.702Z,10.78
2018-08-09T16:42:54.801Z,10.50
2018-08-09T16:45:25.277Z,9.93
2018-08-09T16:47:54.894Z,9.48
2018-08-09T16:50:25.477Z,10.00
2018-08-09T16:52:54.781Z,10.15
2018-08-09T16:55:24.556Z,11.30
2018-08-09T16:57:53.677Z,11.73
2018-08-09T17:00:24.033Z,11.75
2018-08-09T17:02:54.771Z,11.48
2018-08-09T17:05:27.301Z,12.20
2018-08-09T17:07:56.468Z,12.50
2018-08-09T17:10:25.896Z,12.40
2018-08-09T17:12:54.726Z,12.60
2018-08-09T17:15:26.708Z,13.32
2018-08-09T17:17:56.391Z,13.22
2018-08-09T17:20:28.159Z,13.03
2018-08-09T17:22:57.361Z,12.45
2018-08-09T17:25:27.850Z,11.80
2018-08-09T17:27:56.734Z,12.30
2018-08-09T17:30:26.794Z,12.68
2018-08-09T17:32:56.708Z,12.90
2018-08-09T17:35:25.608Z,13.05
2018-08-09T17:37:54.911Z,13.03
2018-08-09T17:40:27.581Z,12.73
2018-08-09T17:42:57.179Z,13.22
2018-08-09T17:45:29.243Z,14.25
2018-08-09T17:47:58.321Z,13.18
2018-08-09T17:50:28.126Z,13.22
2018-08-09T17:52:59.454Z,12.95
2018-08-09T17:55:28.938Z,12.58
2018-08-09T17:57:57.758Z,13.05
2018-08-09T18:00:28.971Z,13.28
2018-08-09T18:02:57.851Z,12.25
2018-08-09T18:05:26.653Z,13.08
2018-08-09T18:07:56.341Z,13.43
2018-08-09T18:10:28.464Z,14.00
2018-08-09T18:12:57.239Z,13.20
2018-08-09T18:15:27.633Z,13.25
2018-08-09T18:17:56.915Z,12.90
2018-08-09T18:20:30.411Z,13.32
2018-08-09T18:22:59.521Z,13.65
2018-08-09T18:25:28.206Z,13.83
2018-08-09T18:27:57.151Z,13.03
2018-08-09T18:30:25.839Z,13.05
2018-08-09T18:32:54.655Z,13.50
2018-08-09T18:35:23.404Z,13.98
2018-08-09T18:37:52.172Z,13.28
2018-08-09T18:40:23.879Z,13.45
2018-08-09T18:42:52.956Z,14.00
2018-08-09T18:45:22.313Z,13.70
2018-08-09T18:47:51.124Z,13.62
2018-08-09T18:50:21.583Z,13.60
2018-08-09T18:52:50.424Z,14.03
2018-08-09T18:55:19.916Z,13.62
2018-08-09T18:57:48.951Z,13.60
2018-08-09T19:00:19.818Z,13.95
2018-08-09T19:02:49.203Z,13.58
2018-08-09T19:05:18.249Z,13.88
2018-08-09T19:07:47.276Z,13.65
2018-08-09T19:10:27.192Z,14.28
2018-08-09T19:12:56.121Z,14.60
2018-08-09T19:15:25.687Z,14.53
2018-08-09T19:17:54.631Z,14.30
2018-08-09T19:20:29.157Z,14.73
2018-08-09T19:22:59.325Z,15.10
2018-08-09T19:25:28.203Z,15.23
2018-08-09T19:27:57.195Z,15.00
2018-08-09T19:30:28.090Z,15.40
2018-08-09T19:32:58.101Z,15.83
2018-08-09T19:35:26.909Z,15.30
2018-08-09T19:37:56.311Z,16.32
2018-08-09T19:40:29.822Z,16.40
2018-08-09T19:42:59.401Z,16.37
2018-08-09T19:45:29.033Z,16.80
2018-08-09T19:47:58.382Z,16.15
2018-08-09T19:50:27.985Z,18.07
2018-08-09T19:52:57.187Z,17.07
2018-08-09T19:55:26.875Z,17.13
2018-08-09T19:57:57.151Z,17.63
2018-08-09T20:00:28.481Z,16.50
2018-08-09T20:02:58.151Z,16.97
2018-08-09T20:05:27.969Z,17.30
2018-08-09T20:07:58.025Z,17.37
2018-08-09T20:10:27.105Z,16.87
2018-08-09T20:12:56.094Z,16.95
2018-08-09T20:15:25.051Z,18.00
2018-08-09T20:17:54.064Z,16.73
2018-08-09T20:20:25.490Z,17.03
2018-08-09T20:22:54.448Z,17.00
2018-08-09T20:25:24.239Z,17.17
2018-08-09T20:27:54.179Z,17.27
2018-08-09T20:30:23.059Z,17.23
2018-08-09T20:32:52.824Z,16.93
2018-08-09T20:35:24.134Z,16.75
2018-08-09T20:37:53.360Z,17.00
2018-08-09T20:40:23.014Z,17.93
2018-08-09T20:42:53.195Z,17.37
2018-08-09T20:45:23.757Z,17.67
2018-08-09T20:47:53.168Z,17.40
2018-08-09T20:50:24.799Z,18.07
2018-08-09T20:52:53.675Z,16.80
2018-08-09T20:55:23.145Z,16.80
2018-08-09T20:57:52.850Z,18.07
2018-08-09T21:00:24.566Z,16.77
2018-08-09T21:02:54.825Z,17.27
2018-08-09T21:05:33.382Z,17.07
2018-08-09T21:08:02.487Z,17.97
2018-08-09T21:10:31.563Z,17.40
2018-08-09T21:13:00.682Z,18.33
2018-08-09T21:15:29.843Z,18.63
2018-08-09T21:17:59.798Z,17.60
2018-08-09T21:20:29.064Z,16.63
2018-08-09T21:22:58.012Z,18.27
2018-08-09T21:25:28.570Z,17.03
2018-08-09T21:27:57.532Z,17.83
2018-08-09T21:30:27.941Z,18.10
2018-08-09T21:32:57.734Z,17.83
2018-08-09T21:35:26.807Z,18.30
2018-08-09T21:37:55.727Z,18.10
2018-08-09T21:40:25.004Z,18.97
2018-08-09T21:42:54.019Z,17.33
2018-08-09T21:45:23.013Z,17.23
2018-08-09T21:47:51.922Z,17.57
2018-08-09T21:50:21.765Z,18.87
2018-08-09T21:52:51.123Z,18.40
2018-08-09T21:55:20.063Z,18.30
2018-08-09T21:57:48.855Z,17.30
2018-08-09T22:00:38.594Z,17.80
2018-08-09T22:03:07.472Z,17.27
2018-08-09T22:05:41.631Z,18.37
2018-08-09T22:08:15.938Z,17.70
2018-08-09T22:10:50.261Z,17.97
2018-08-09T22:13:24.549Z,17.87
2018-08-09T22:15:58.846Z,18.10
2018-08-09T22:18:33.324Z,19.30
2018-08-09T22:21:08.159Z,18.40
2018-08-09T22:23:38.463Z,19.77
2018-08-09T22:26:08.702Z,19.63
2018-08-09T22:28:38.336Z,19.70
2018-08-09T22:31:07.280Z,20.90
2018-08-09T22:33:36.120Z,20.97
2018-08-09T22:36:05.855Z,20.20
2018-08-09T22:38:34.718Z,21.43
2018-08-09T22:41:03.815Z,20.97
2018-08-09T22:43:33.195Z,20.80
2018-08-09T22:46:02.027Z,20.30
2018-08-09T22:48:32.165Z,20.93
2018-08-09T22:51:03.578Z,20.90
2018-08-09T22:53:33.088Z,20.17
2018-08-09T22:56:03.603Z,21.60
2018-08-09T22:58:32.351Z,22.00
2018-08-09T23:01:01.688Z,21.20
2018-08-09T23:03:30.474Z,21.63
2018-08-09T23:06:00.312Z,20.80
2018-08-09T23:08:29.106Z,21.20
2018-08-09T23:10:57.945Z,21.53
2018-08-09T23:13:26.689Z,21.17
2018-08-09T23:15:55.451Z,20.63
2018-08-09T23:18:24.163Z,21.20
2018-08-09T23:20:52.866Z,21.40
2018-08-09T23:23:21.623Z,21.83
2018-08-09T23:25:50.416Z,21.27
2018-08-09T23:28:19.203Z,21.17
2018-08-09T23:30:47.923Z,21.03
2018-08-09T23:33:22.576Z,20.10
2018-08-09T23:35:51.540Z,19.63
2018-08-09T23:38:20.359Z,20.83
2018-08-09T23:40:49.054Z,19.37
2018-08-09T23:43:17.791Z,20.53
2018-08-09T23:45:46.980Z,19.73
2018-08-09T23:48:15.836Z,19.87
2018-08-09T23:50:44.646Z,20.67
2018-08-09T23:53:13.453Z,20.27
2018-08-09T23:55:42.700Z,20.30
2018-08-09T23:58:11.456Z,20.37
